createdAt,value
2022-10-05T00:01:49.250Z,5.80
2022-10-05T00:04:19.115Z,5.23
2022-10-05T00:06:49.242Z,4.10
2022-10-05T00:09:19.052Z,4.30
2022-10-05T00:11:47.208Z,4.00
2022-10-05T00:14:17.894Z,3.70
2022-10-05T00:16:46.227Z,4.50
2022-10-05T00:19:22.390Z,4.30
2022-10-05T00:21:50.448Z,4.57
2022-10-05T00:24:20.826Z,4.10
2022-10-05T00:26:54.209Z,4.30
2022-10-05T00:29:25.613Z,4.50
2022-10-05T00:31:53.594Z,4.30
2022-10-05T00:34:22.967Z,4.33
2022-10-05T00:36:50.878Z,4.97
2022-10-05T00:39:19.332Z,5.27
2022-10-05T00:41:59.636Z,5.30
2022-10-05T00:44:36.398Z,4.93
2022-10-05T00:47:12.215Z,6.30
2022-10-05T00:49:55.310Z,4.93
2022-10-05T00:52:27.783Z,5.23
2022-10-05T00:55:03.618Z,4.27
2022-10-05T00:57:39.172Z,4.47
2022-10-05T01:00:09.672Z,3.80
2022-10-05T01:02:47.706Z,4.90
2022-10-05T01:05:21.965Z,3.93
2022-10-05T01:07:54.626Z,3.90
2022-10-05T01:10:28.615Z,3.80
2022-10-05T01:13:04.573Z,4.77
2022-10-05T01:15:36.100Z,4.30
2022-10-05T01:18:07.155Z,4.13
2022-10-05T01:20:47.501Z,4.23
2022-10-05T01:23:49.181Z,4.17
2022-10-05T01:26:39.305Z,5.03
2022-10-05T01:29:12.389Z,4.20
2022-10-05T01:31:45.543Z,4.27
2022-10-05T01:34:18.329Z,4.33
2022-10-05T01:36:52.998Z,4.67
2022-10-05T01:39:28.435Z,10.90
2022-10-05T01:42:04.913Z,8.90
2022-10-05T01:44:37.781Z,5.50
2022-10-05T01:47:10.819Z,5.00
2022-10-05T01:49:39.733Z,8.60
2022-10-05T01:52:21.030Z,29.10
2022-10-05T01:54:58.126Z,16.53
2022-10-05T01:57:36.249Z,17.93
2022-10-05T02:00:09.485Z,10.20
2022-10-05T02:02:39.690Z,7.97
2022-10-05T02:05:12.286Z,8.27
2022-10-05T02:07:43.530Z,8.37
2022-10-05T02:10:24.378Z,7.30
2022-10-05T02:12:55.817Z,8.10
2022-10-05T02:15:27.498Z,7.05
2022-10-05T02:17:58.936Z,6.97
2022-10-05T02:20:29.938Z,7.17
2022-10-05T02:23:00.725Z,9.10
2022-10-05T02:25:30.850Z,8.00
2022-10-05T02:28:02.468Z,8.50
2022-10-05T02:30:32.948Z,6.37
2022-10-05T02:33:03.018Z,6.43
2022-10-05T02:35:31.007Z,6.10
2022-10-05T02:38:08.009Z,5.53
2022-10-05T02:40:44.136Z,4.70
2022-10-05T02:43:20.747Z,7.30
2022-10-05T02:45:55.176Z,6.97
2022-10-05T02:48:32.653Z,6.83
2022-10-05T02:51:05.129Z,5.60
2022-10-05T02:53:37.037Z,9.50
2022-10-05T02:56:14.601Z,9.80
2022-10-05T02:58:47.390Z,12.73
2022-10-05T03:01:22.774Z,11.73
2022-10-05T03:03:57.246Z,10.00
2022-10-05T03:06:29.511Z,9.70
2022-10-05T03:09:01.538Z,13.60
2022-10-05T03:11:36.726Z,13.10
2022-10-05T03:14:08.308Z,13.87
2022-10-05T03:16:45.456Z,12.50
2022-10-05T03:19:23.274Z,11.90
2022-10-05T03:21:59.051Z,17.43
2022-10-05T03:24:48.389Z,17.20
2022-10-05T03:27:26.396Z,21.17
2022-10-05T03:29:59.029Z,20.97
2022-10-05T03:32:34.024Z,23.50
2022-10-05T03:35:06.314Z,22.27
2022-10-05T03:37:40.448Z,19.03
2022-10-05T03:40:11.357Z,15.30
2022-10-05T03:42:50.867Z,17.13
2022-10-05T03:45:24.262Z,14.33
2022-10-05T03:48:01.456Z,13.23
2022-10-05T03:50:40.617Z,13.07
2022-10-05T03:53:13.019Z,13.60
2022-10-05T03:55:43.322Z,11.57
2022-10-05T03:58:16.264Z,10.97
2022-10-05T04:00:46.047Z,12.10
2022-10-05T04:03:19.916Z,12.63
2022-10-05T04:05:50.531Z,12.13
2022-10-05T04:08:23.089Z,9.70
2022-10-05T04:10:52.886Z,10.03
2022-10-05T04:13:24.516Z,10.77
2022-10-05T04:15:58.806Z,10.67
2022-10-05T04:18:31.937Z,11.27
2022-10-05T04:21:03.256Z,9.93
2022-10-05T04:23:40.158Z,8.57
2022-10-05T04:26:11.734Z,7.83
2022-10-05T04:28:46.942Z,8.80
2022-10-05T04:31:19.697Z,9.27
2022-10-05T04:33:58.112Z,12.07
2022-10-05T04:36:28.249Z,13.37
2022-10-05T04:39:06.506Z,13.40
2022-10-05T04:41:50.057Z,12.73
2022-10-05T04:44:28.107Z,11.93
2022-10-05T04:47:10.141Z,13.90
2022-10-05T04:49:50.638Z,13.93
2022-10-05T04:52:25.195Z,11.33
2022-10-05T04:55:10.133Z,12.60
2022-10-05T04:57:42.961Z,9.33
2022-10-05T05:00:21.398Z,10.30
2022-10-05T05:03:05.012Z,9.30
2022-10-05T05:06:05.106Z,9.27
2022-10-05T05:08:43.399Z,8.70
2022-10-05T05:11:20.066Z,6.07
2022-10-05T05:14:17.769Z,6.50
2022-10-05T05:16:47.562Z,8.20
2022-10-05T05:19:32.153Z,9.60
2022-10-05T05:22:04.922Z,9.73
2022-10-05T05:24:42.650Z,8.50
2022-10-05T05:27:45.848Z,14.03
2022-10-05T05:30:24.514Z,14.33
2022-10-05T05:33:04.627Z,11.63
2022-10-05T05:36:02.814Z,13.13
2022-10-05T05:38:35.462Z,14.40
2022-10-05T05:41:10.154Z,20.73
2022-10-05T05:43:50.309Z,14.73
2022-10-05T05:46:38.899Z,11.80
2022-10-05T05:49:16.954Z,18.20
2022-10-05T05:51:48.387Z,11.10
2022-10-05T05:54:27.410Z,7.40
2022-10-05T05:57:00.554Z,9.53
2022-10-05T05:59:32.101Z,9.37
2022-10-05T06:02:05.259Z,6.80
2022-10-05T06:04:37.105Z,11.37
2022-10-05T06:07:06.478Z,9.57
2022-10-05T06:09:38.662Z,9.30
2022-10-05T06:12:10.192Z,8.40
2022-10-05T06:14:41.650Z,8.30
2022-10-05T06:17:14.185Z,7.53
2022-10-05T06:19:43.086Z,8.43
2022-10-05T06:22:16.486Z,5.30
2022-10-05T06:24:54.671Z,4.70
2022-10-05T06:27:35.002Z,5.27
2022-10-05T06:30:09.479Z,5.60
2022-10-05T06:32:51.842Z,5.23
2022-10-05T06:35:26.941Z,9.03
2022-10-05T06:38:14.033Z,4.20
2022-10-05T06:40:54.275Z,4.13
2022-10-05T06:43:32.389Z,3.60
2022-10-05T06:46:08.741Z,4.07
2022-10-05T06:48:59.501Z,4.53
2022-10-05T06:51:33.951Z,3.80
2022-10-05T06:54:09.104Z,3.80
2022-10-05T06:56:45.149Z,3.80
2022-10-05T06:59:19.528Z,4.00
2022-10-05T07:01:53.779Z,3.80
2022-10-05T07:04:42.812Z,4.17
2022-10-05T07:07:15.963Z,4.53
2022-10-05T07:09:54.129Z,2.90
2022-10-05T07:12:49.865Z,2.60
2022-10-05T07:15:40.816Z,2.80
2022-10-05T07:18:26.632Z,3.50
2022-10-05T07:21:00.281Z,3.40
2022-10-05T07:23:38.707Z,3.70
2022-10-05T07:26:10.858Z,4.00
2022-10-05T07:28:46.120Z,3.60
2022-10-05T07:31:19.946Z,3.63
2022-10-05T07:33:54.257Z,2.70
2022-10-05T07:36:50.951Z,2.57
2022-10-05T07:39:42.011Z,2.60
2022-10-05T07:42:21.819Z,2.67
2022-10-05T07:44:55.728Z,4.10
2022-10-05T07:47:28.307Z,3.73
2022-10-05T07:50:01.771Z,2.50
2022-10-05T07:52:35.151Z,2.43
2022-10-05T07:55:05.524Z,2.33
2022-10-05T07:57:39.406Z,2.67
2022-10-05T08:00:14.567Z,2.23
2022-10-05T08:02:49.066Z,2.13
2022-10-05T08:05:21.368Z,2.00
2022-10-05T08:07:52.809Z,2.53
2022-10-05T08:10:28.890Z,14.90
2022-10-05T08:13:04.399Z,2.70
2022-10-05T08:15:37.034Z,2.13
2022-10-05T08:18:13.257Z,2.07
2022-10-05T08:20:44.758Z,1.50
2022-10-05T08:23:22.414Z,1.90
2022-10-05T08:25:57.788Z,2.20
2022-10-05T08:28:28.534Z,1.53
2022-10-05T08:31:02.464Z,2.27
2022-10-05T08:33:35.943Z,2.07
2022-10-05T08:36:07.878Z,1.90
2022-10-05T08:38:35.795Z,2.07
2022-10-05T08:41:39.254Z,1.60
2022-10-05T08:44:44.105Z,1.33
2022-10-05T08:47:22.977Z,1.33
2022-10-05T08:50:03.840Z,1.10
2022-10-05T08:52:32.665Z,1.20
2022-10-05T08:55:37.136Z,1.40
2022-10-05T08:58:59.156Z,2.07
2022-10-05T09:01:34.253Z,1.93
2022-10-05T09:04:20.901Z,1.83
2022-10-05T09:07:02.062Z,2.03
2022-10-05T09:09:57.193Z,1.87
2022-10-05T09:13:06.000Z,2.20
2022-10-05T09:16:16.894Z,1.80
2022-10-05T09:19:01.706Z,1.90
2022-10-05T09:21:44.896Z,1.80
2022-10-05T09:24:40.733Z,1.87
2022-10-05T09:27:13.077Z,1.93
2022-10-05T09:30:15.885Z,1.97
2022-10-05T09:33:16.390Z,2.20
2022-10-05T09:36:12.423Z,2.53
2022-10-05T09:39:00.550Z,2.47
2022-10-05T09:41:51.473Z,1.63
2022-10-05T09:44:51.528Z,1.77
2022-10-05T09:47:45.167Z,1.87
2022-10-05T09:51:01.631Z,1.80
2022-10-05T09:53:54.612Z,2.30
2022-10-05T09:56:45.441Z,3.10
2022-10-05T09:59:53.140Z,1.83
2022-10-05T10:02:36.439Z,1.97
2022-10-05T10:05:29.869Z,1.43
2022-10-05T10:08:14.597Z,1.90
2022-10-05T10:11:01.749Z,1.63
2022-10-05T10:14:00.268Z,1.40
2022-10-05T10:16:42.347Z,1.50
2022-10-05T10:19:31.484Z,11.07
2022-10-05T10:22:32.078Z,7.43
2022-10-05T10:25:26.841Z,2.40
2022-10-05T10:28:13.220Z,1.53
2022-10-05T10:31:13.076Z,1.20
2022-10-05T10:34:04.665Z,1.87
2022-10-05T10:36:50.542Z,2.20
2022-10-05T10:39:23.554Z,1.70
2022-10-05T10:42:16.991Z,1.50
2022-10-05T10:45:06.665Z,1.60
2022-10-05T10:47:48.431Z,1.40
2022-10-05T10:51:01.999Z,1.60
2022-10-05T10:54:12.223Z,1.53
2022-10-05T10:56:50.350Z,1.60
2022-10-05T11:00:00.336Z,2.17
2022-10-05T11:02:46.807Z,1.70
2022-10-05T11:05:29.033Z,1.60
2022-10-05T11:08:34.277Z,1.60
2022-10-05T11:11:27.011Z,1.53
2022-10-05T11:14:27.994Z,1.80
2022-10-05T11:17:16.116Z,1.50
2022-10-05T11:20:03.683Z,1.40
2022-10-05T11:23:06.145Z,1.60
2022-10-05T11:25:52.254Z,1.70
2022-10-05T11:28:42.169Z,1.80
2022-10-05T11:31:41.652Z,1.77
2022-10-05T11:34:35.153Z,1.60
2022-10-05T11:37:31.877Z,1.40
2022-10-05T11:40:33.276Z,1.43
2022-10-05T11:43:42.961Z,1.80
2022-10-05T11:46:17.834Z,1.83
2022-10-05T11:49:00.515Z,1.33
2022-10-05T11:51:45.751Z,1.90
2022-10-05T11:54:22.787Z,1.57
2022-10-05T11:56:54.698Z,1.90
2022-10-05T11:59:29.917Z,1.63
2022-10-05T12:02:07.778Z,5.53
2022-10-05T12:04:40.953Z,1.93
2022-10-05T12:07:16.082Z,4.60
2022-10-05T12:10:20.110Z,1.60
2022-10-05T12:13:08.619Z,2.17
2022-10-05T12:15:45.005Z,2.30
2022-10-05T12:18:17.002Z,1.90
2022-10-05T12:20:48.625Z,2.80
2022-10-05T12:23:21.879Z,2.70
2022-10-05T12:25:55.548Z,2.00
2022-10-05T12:28:28.912Z,2.33
2022-10-05T12:31:15.774Z,1.87
2022-10-05T12:33:50.019Z,2.20
2022-10-05T12:36:21.202Z,2.00
2022-10-05T12:38:55.868Z,2.00
2022-10-05T12:41:32.002Z,2.27
2022-10-05T12:44:12.961Z,2.00
2022-10-05T12:46:46.932Z,2.33
2022-10-05T12:49:28.598Z,1.80
2022-10-05T12:51:59.170Z,2.23
2022-10-05T12:54:38.789Z,2.00
2022-10-05T12:57:14.017Z,2.07
2022-10-05T12:59:45.703Z,1.97
2022-10-05T13:02:21.421Z,1.93
2022-10-05T13:04:53.017Z,2.10
2022-10-05T13:07:38.596Z,2.30
2022-10-05T13:10:15.694Z,1.80
2022-10-05T13:12:52.356Z,2.03
2022-10-05T13:15:25.138Z,1.40
2022-10-05T13:18:00.729Z,2.00
2022-10-05T13:20:32.631Z,1.60
2022-10-05T13:23:04.688Z,2.27
2022-10-05T13:25:34.334Z,1.70
2022-10-05T13:28:16.827Z,1.70
2022-10-05T13:30:53.759Z,1.60
2022-10-05T13:33:28.437Z,2.53
2022-10-05T13:36:01.562Z,2.43
2022-10-05T13:38:39.813Z,2.07
2022-10-05T13:41:14.977Z,2.30
2022-10-05T13:43:50.627Z,1.60
2022-10-05T13:46:24.754Z,1.90
2022-10-05T13:49:01.405Z,1.40
2022-10-05T13:51:32.086Z,1.23
2022-10-05T13:54:05.871Z,1.30
2022-10-05T13:56:35.909Z,1.73
2022-10-05T13:59:15.114Z,1.83
2022-10-05T14:01:45.344Z,1.77
2022-10-05T14:04:18.107Z,1.67
2022-10-05T14:06:46.476Z,1.33
2022-10-05T14:09:28.561Z,1.60
2022-10-05T14:12:13.271Z,1.43
2022-10-05T14:14:48.416Z,1.30
2022-10-05T14:17:18.222Z,1.40
2022-10-05T14:19:51.115Z,1.70
2022-10-05T14:22:23.390Z,1.50
2022-10-05T14:24:53.324Z,1.50
2022-10-05T14:27:24.209Z,1.50
2022-10-05T14:30:02.937Z,1.53
2022-10-05T14:32:32.896Z,1.70
2022-10-05T14:35:06.212Z,1.40
2022-10-05T14:37:44.681Z,1.60
2022-10-05T14:40:28.403Z,1.83
2022-10-05T14:42:56.755Z,1.40
2022-10-05T14:45:29.876Z,1.90
2022-10-05T14:48:09.841Z,1.80
2022-10-05T14:50:52.901Z,1.50
2022-10-05T14:53:21.800Z,1.67
2022-10-05T14:56:17.143Z,2.10
2022-10-05T14:59:04.433Z,1.60
2022-10-05T15:01:35.908Z,2.00
2022-10-05T15:04:16.297Z,1.87
2022-10-05T15:06:53.359Z,1.60
2022-10-05T15:09:36.579Z,1.57
2022-10-05T15:12:04.742Z,1.60
2022-10-05T15:14:35.545Z,1.60
2022-10-05T15:17:07.576Z,1.70
2022-10-05T15:19:44.830Z,1.87
2022-10-05T15:22:22.932Z,2.10
2022-10-05T15:24:58.389Z,1.83
2022-10-05T15:27:31.923Z,1.73
2022-10-05T15:30:06.326Z,2.10
2022-10-05T15:32:42.762Z,1.90
2022-10-05T15:35:30.808Z,2.50
2022-10-05T15:38:03.469Z,2.50
2022-10-05T15:40:37.334Z,2.20
2022-10-05T15:43:11.355Z,2.80
2022-10-05T15:45:45.277Z,2.37
2022-10-05T15:48:20.006Z,3.20
2022-10-05T15:50:56.967Z,2.50
2022-10-05T15:53:29.197Z,2.50
2022-10-05T15:56:01.111Z,2.00
2022-10-05T15:58:45.621Z,2.63
2022-10-05T16:01:17.514Z,2.20
2022-10-05T16:03:51.482Z,2.30
2022-10-05T16:06:54.246Z,2.50
2022-10-05T16:09:37.374Z,2.47
2022-10-05T16:12:14.994Z,3.03
2022-10-05T16:14:55.851Z,2.77
2022-10-05T16:17:36.844Z,3.13
2022-10-05T16:20:18.037Z,2.70
2022-10-05T16:22:49.604Z,3.30
2022-10-05T16:25:23.324Z,3.23
2022-10-05T16:28:05.729Z,3.33
2022-10-05T16:30:42.134Z,3.37
2022-10-05T16:33:13.192Z,5.40
2022-10-05T16:35:49.517Z,6.87
2022-10-05T16:38:26.867Z,7.80
2022-10-05T16:41:02.385Z,7.57
2022-10-05T16:43:39.920Z,6.23
2022-10-05T16:46:13.792Z,6.90
2022-10-05T16:48:49.038Z,6.00
2022-10-05T16:51:29.822Z,5.57
2022-10-05T16:54:03.429Z,5.30
2022-10-05T16:56:37.897Z,4.77
2022-10-05T16:59:24.006Z,5.90
2022-10-05T17:02:00.821Z,6.40
2022-10-05T17:04:39.103Z,7.23
2022-10-05T17:07:30.015Z,7.93
2022-10-05T17:10:24.401Z,11.23
2022-10-05T17:13:02.058Z,21.60
2022-10-05T17:15:37.269Z,15.83
2022-10-05T17:18:23.835Z,12.40
2022-10-05T17:20:56.884Z,7.90
2022-10-05T17:23:32.501Z,7.87
2022-10-05T17:26:09.361Z,6.90
2022-10-05T17:28:38.932Z,8.13
2022-10-05T17:31:14.171Z,10.47
2022-10-05T17:34:19.467Z,11.50
2022-10-05T17:36:49.567Z,10.50
2022-10-05T17:39:20.524Z,10.57
2022-10-05T17:41:49.127Z,9.93
2022-10-05T17:44:27.920Z,9.43
2022-10-05T17:46:59.913Z,8.83
2022-10-05T17:50:10.908Z,10.10
2022-10-05T17:53:01.285Z,9.63
2022-10-05T17:55:42.929Z,9.27
2022-10-05T17:59:02.970Z,7.90
2022-10-05T18:01:33.948Z,8.00
2022-10-05T18:04:34.470Z,9.50
2022-10-05T18:07:16.997Z,10.13
2022-10-05T18:10:21.556Z,10.93
2022-10-05T18:12:52.267Z,10.90
2022-10-05T18:15:48.693Z,7.93
2022-10-05T18:18:55.868Z,8.93
2022-10-05T18:21:39.123Z,7.60
2022-10-05T18:24:43.205Z,7.60
2022-10-05T18:27:36.654Z,5.70
2022-10-05T18:30:15.026Z,6.27
2022-10-05T18:33:22.082Z,6.97
2022-10-05T18:36:07.397Z,5.87
2022-10-05T18:38:51.276Z,5.80
2022-10-05T18:41:28.632Z,11.13
2022-10-05T18:44:06.396Z,14.30
2022-10-05T18:46:43.753Z,10.53
2022-10-05T18:49:24.816Z,11.03
2022-10-05T18:51:57.179Z,9.27
2022-10-05T18:54:44.926Z,8.80
2022-10-05T18:57:46.514Z,7.60
2022-10-05T19:00:16.975Z,7.10
2022-10-05T19:02:49.885Z,10.30
2022-10-05T19:08:20.715Z,11.17
2022-10-05T19:10:51.943Z,11.57
2022-10-05T19:13:34.474Z,10.07
2022-10-05T19:16:12.355Z,9.00
2022-10-05T19:18:52.858Z,7.90
2022-10-05T19:21:26.622Z,6.80
2022-10-05T19:24:15.156Z,6.20
2022-10-05T19:26:56.445Z,6.40
2022-10-05T19:29:38.150Z,5.83
2022-10-05T19:32:10.068Z,7.00
2022-10-05T19:34:50.121Z,7.70
2022-10-05T19:37:21.894Z,8.20
2022-10-05T19:39:54.762Z,7.00
2022-10-05T19:42:53.485Z,6.57
2022-10-05T19:45:24.239Z,6.80
2022-10-05T19:48:02.393Z,6.67
2022-10-05T19:50:33.722Z,7.30
2022-10-05T19:53:04.125Z,6.70
2022-10-05T19:55:37.722Z,8.00
2022-10-05T19:58:18.802Z,8.33
2022-10-05T20:00:54.506Z,7.17
2022-10-05T20:03:27.614Z,7.33
2022-10-05T20:05:58.314Z,8.60
2022-10-05T20:08:27.676Z,9.20
2022-10-05T20:11:07.753Z,13.37
2022-10-05T20:13:35.937Z,24.00
2022-10-05T20:16:26.506Z,27.20
2022-10-05T20:19:12.580Z,26.60
2022-10-05T20:21:47.658Z,22.43
2022-10-05T20:24:17.235Z,18.47
2022-10-05T20:27:05.098Z,13.80
2022-10-05T20:29:36.507Z,13.10
2022-10-05T20:32:08.773Z,13.93
2022-10-05T20:34:38.002Z,11.40
2022-10-05T20:37:07.322Z,13.70
2022-10-05T20:39:35.270Z,18.03
2022-10-05T20:42:03.161Z,11.63
2022-10-05T20:44:31.150Z,11.20
2022-10-05T20:47:01.331Z,8.77
2022-10-05T20:49:31.043Z,8.80
2022-10-05T20:51:59.590Z,5.87
2022-10-05T20:54:28.986Z,5.00
2022-10-05T20:56:57.221Z,7.70
2022-10-05T20:59:26.131Z,7.23
2022-10-05T21:01:54.126Z,5.60
2022-10-05T21:04:23.851Z,6.70
2022-10-05T21:06:52.897Z,4.10
2022-10-05T21:09:21.667Z,4.33
2022-10-05T21:11:52.907Z,4.23
2022-10-05T21:14:20.850Z,4.93
2022-10-05T21:16:48.891Z,5.00
2022-10-05T21:19:17.373Z,4.07
2022-10-05T21:21:46.746Z,3.63
2022-10-05T21:24:15.824Z,3.80
2022-10-05T21:26:44.409Z,3.50
2022-10-05T21:29:14.035Z,9.20
2022-10-05T21:31:42.246Z,10.00
2022-10-05T21:34:10.215Z,9.87
2022-10-05T21:36:38.224Z,9.93
2022-10-05T21:39:06.134Z,11.00
2022-10-05T21:41:34.189Z,10.87
2022-10-05T21:44:02.134Z,11.20
2022-10-05T21:46:31.646Z,14.60
2022-10-05T21:48:59.605Z,18.43
2022-10-05T21:51:27.863Z,17.43
2022-10-05T21:53:58.354Z,16.57
2022-10-05T21:56:29.660Z,14.53
2022-10-05T21:58:57.585Z,14.60
2022-10-05T22:01:25.690Z,12.53
2022-10-05T22:03:55.123Z,12.43
2022-10-05T22:06:23.080Z,12.00
2022-10-05T22:08:51.031Z,10.90
2022-10-05T22:11:19.459Z,10.50
2022-10-05T22:13:49.370Z,8.67
2022-10-05T22:16:18.590Z,9.20
2022-10-05T22:18:46.981Z,8.20
2022-10-05T22:21:16.984Z,7.97
2022-10-05T22:23:46.904Z,7.77
2022-10-05T22:26:17.446Z,7.47
2022-10-05T22:28:46.697Z,7.70
2022-10-05T22:31:15.045Z,5.83
2022-10-05T22:33:43.016Z,5.90
2022-10-05T22:36:11.070Z,4.70
2022-10-05T22:38:40.369Z,4.83
2022-10-05T22:41:11.400Z,4.40
2022-10-05T22:43:39.423Z,5.70
2022-10-05T22:46:10.282Z,4.57
2022-10-05T22:48:38.411Z,4.73
2022-10-05T22:51:06.745Z,4.50
2022-10-05T22:53:34.863Z,4.47
2022-10-05T22:56:08.860Z,5.07
2022-10-05T22:58:37.349Z,5.30
2022-10-05T23:01:06.660Z,6.13
2022-10-05T23:03:34.927Z,4.73
2022-10-05T23:06:04.749Z,5.07
2022-10-05T23:08:33.266Z,3.67
2022-10-05T23:11:02.917Z,2.90
2022-10-05T23:13:32.995Z,3.10
2022-10-05T23:16:06.911Z,3.77
2022-10-05T23:18:35.343Z,3.50
2022-10-05T23:21:03.367Z,3.53
2022-10-05T23:23:31.346Z,3.53
2022-10-05T23:26:02.690Z,3.03
2022-10-05T23:28:32.637Z,2.23
2022-10-05T23:31:01.553Z,2.30
2022-10-05T23:33:29.588Z,3.30
2022-10-05T23:36:01.021Z,3.17
2022-10-05T23:38:29.982Z,3.33
2022-10-05T23:40:59.867Z,2.60
2022-10-05T23:43:28.292Z,3.70
2022-10-05T23:45:58.122Z,2.80
2022-10-05T23:48:26.717Z,2.77
2022-10-05T23:50:55.742Z,2.60
2022-10-05T23:53:23.940Z,3.10
2022-10-05T23:55:52.166Z,2.80
2022-10-05T23:58:20.578Z,3.67
